Time;durP1;ratioP1;P1;durP2;ratioP2;P2;SDS_P1;SDS_P2;PMS_P1;PMS_P2;Temp;Humidity;BMP_temperature;BMP_pressure;BME280_temperature;BME280_humidity;BME280_pressure;Samples;Min_cycle;Max_cycle;Signal;HPM_P1;HPM_P2
2021/04/01 00:02:18;;;;;;;16.23;8.07;;;9.20;99.90;;;;;;4998554;28;20045;-66
2021/04/01 00:04:44;;;;;;;16.95;7.85;;;9.10;99.90;;;;;;4996172;28;20483;-66
2021/04/01 00:07:14;;;;;;;16.80;7.80;;;9.10;99.90;;;;;;4995577;28;20149;-66
2021/04/01 00:09:40;;;;;;;14.82;8.77;;;9.00;99.90;;;;;;5007042;28;20708;-67
2021/04/01 00:12:06;;;;;;;17.23;8.50;;;9.00;99.90;;;;;;4995809;28;20037;-67
2021/04/01 00:14:34;;;;;;;17.02;7.85;;;8.90;99.90;;;;;;4995494;28;20141;-67
2021/04/01 00:17:02;;;;;;;25.67;8.63;;;8.90;99.90;;;;;;4990716;28;20037;-67
2021/04/01 00:19:27;;;;;;;16.02;8.65;;;8.90;99.90;;;;;;4995435;28;20041;-66
2021/04/01 00:21:53;;;;;;;22.52;8.43;;;8.80;99.90;;;;;;4995329;28;20034;-67
2021/04/01 00:24:19;;;;;;;19.73;8.55;;;8.90;99.90;;;;;;5009661;28;20040;-66
2021/04/01 00:26:45;;;;;;;20.40;8.30;;;8.80;99.90;;;;;;4995245;28;20079;-66
2021/04/01 00:29:11;;;;;;;17.13;9.40;;;8.90;99.90;;;;;;4994257;28;20033;-66
2021/04/01 00:31:36;;;;;;;21.02;8.38;;;8.90;99.90;;;;;;4994091;28;20041;-66
2021/04/01 00:34:02;;;;;;;19.55;9.88;;;8.80;99.90;;;;;;4996182;28;20037;-66
2021/04/01 00:36:28;;;;;;;17.45;9.00;;;8.90;99.90;;;;;;5010604;28;20457;-67
2021/04/01 00:38:54;;;;;;;23.27;9.25;;;8.90;99.90;;;;;;4996358;28;20026;-67
2021/04/01 00:41:19;;;;;;;19.17;9.27;;;8.90;99.90;;;;;;4993710;28;20434;-66
2021/04/01 00:43:45;;;;;;;25.52;8.30;;;9.00;99.90;;;;;;4996622;28;20037;-67
2021/04/01 00:46:11;;;;;;;16.60;9.00;;;9.00;99.90;;;;;;4995586;28;20064;-66
2021/04/01 00:48:37;;;;;;;17.20;9.73;;;9.00;99.90;;;;;;4995894;28;20037;-67
2021/04/01 00:51:03;;;;;;;18.67;8.60;;;9.00;99.90;;;;;;4987015;28;20497;-66
2021/04/01 00:53:29;;;;;;;18.05;8.25;;;9.00;99.90;;;;;;5010170;28;20116;-66
2021/04/01 00:55:54;;;;;;;17.40;9.07;;;8.90;99.90;;;;;;4994060;28;20144;-66
2021/04/01 00:58:21;;;;;;;18.15;8.68;;;8.90;99.90;;;;;;4995623;28;20038;-66
2021/04/01 01:00:53;;;;;;;14.90;8.43;;;8.80;99.90;;;;;;4995643;28;20034;-66
2021/04/01 01:03:18;;;;;;;17.02;9.23;;;8.70;99.90;;;;;;4998186;28;20022;-66
2021/04/01 01:05:44;;;;;;;15.40;8.07;;;8.70;99.90;;;;;;5006376;28;20890;-66
2021/04/01 01:08:10;;;;;;;15.75;8.48;;;8.60;99.90;;;;;;5013863;28;20061;-66
2021/04/01 01:10:35;;;;;;;21.50;9.35;;;8.60;99.90;;;;;;4998960;28;20048;-66
2021/04/01 01:13:03;;;;;;;18.50;8.98;;;8.70;99.90;;;;;;4999186;28;20033;-66
2021/04/01 01:15:29;;;;;;;21.08;9.60;;;8.70;99.90;;;;;;4998660;28;20065;-66
2021/04/01 01:17:55;;;;;;;15.93;9.07;;;8.90;99.90;;;;;;4999039;28;20494;-66
2021/04/01 01:20:27;;;;;;;21.23;9.30;;;9.00;99.90;;;;;;4998034;28;20107;-67
2021/04/01 01:22:53;;;;;;;18.33;10.02;;;9.10;99.90;;;;;;4997673;28;20159;-66
2021/04/01 01:25:21;;;;;;;24.83;10.23;;;9.30;99.90;;;;;;4998146;28;20037;-66
2021/04/01 01:27:47;;;;;;;18.40;9.73;;;9.40;99.90;;;;;;4999199;28;20033;-69
2021/04/01 01:30:17;;;;;;;21.17;9.57;;;9.50;99.90;;;;;;4998786;28;20797;-65
2021/04/01 01:32:45;;;;;;;24.77;9.82;;;9.70;99.90;;;;;;4998367;28;20041;-66
2021/04/01 01:35:24;;;;;;;19.73;9.73;;;9.80;99.90;;;;;;4997696;28;20026;-66
2021/04/01 01:37:54;;;;;;;24.33;10.60;;;9.90;99.90;;;;;;4996884;28;20789;-66
2021/04/01 01:40:21;;;;;;;19.02;9.18;;;10.00;99.90;;;;;;4997254;28;20034;-66
2021/04/01 01:42:49;;;;;;;21.35;9.52;;;10.10;99.90;;;;;;4996695;28;20034;-66
2021/04/01 01:45:16;;;;;;;23.70;9.90;;;10.00;99.90;;;;;;4998333;28;20065;-66
2021/04/01 01:47:41;;;;;;;22.75;10.45;;;10.00;99.90;;;;;;4997951;28;20820;-66
2021/04/01 01:50:10;;;;;;;20.45;9.55;;;10.00;99.90;;;;;;4998327;28;20034;-66
2021/04/01 01:52:37;;;;;;;27.70;9.90;;;10.00;99.90;;;;;;5012453;28;20039;-66
2021/04/01 01:55:04;;;;;;;20.42;8.98;;;9.90;99.90;;;;;;4998242;28;20054;-66
2021/04/01 01:57:31;;;;;;;18.88;8.90;;;9.90;99.90;;;;;;4997606;28;20134;-66
2021/04/01 01:59:57;;;;;;;24.42;10.18;;;9.90;99.90;;;;;;4998067;28;20084;-66
2021/04/01 02:02:22;;;;;;;21.30;10.38;;;9.90;99.90;;;;;;4997527;28;20378;-66
2021/04/01 02:04:48;;;;;;;19.85;9.93;;;9.90;99.90;;;;;;4997992;28;20041;-66
2021/04/01 02:07:14;;;;;;;18.83;10.07;;;10.00;99.90;;;;;;4997922;28;20139;-66
2021/04/01 02:09:46;;;;;;;22.55;10.35;;;10.10;99.90;;;;;;4998149;28;20038;-66
2021/04/01 02:12:16;;;;;;;24.48;9.90;;;10.10;99.90;;;;;;5000551;28;20034;-66
2021/04/01 02:14:44;;;;;;;23.30;10.40;;;10.10;99.90;;;;;;5014295;28;20033;-66
2021/04/01 02:17:14;;;;;;;24.90;9.75;;;10.00;99.90;;;;;;4997234;28;20087;-66
2021/04/01 02:19:39;;;;;;;20.40;10.00;;;10.10;99.90;;;;;;4996835;28;20091;-66
2021/04/01 02:22:05;;;;;;;25.58;11.38;;;10.10;99.90;;;;;;4997671;28;20029;-66
2021/04/01 02:24:30;;;;;;;22.83;10.73;;;10.10;99.90;;;;;;4996704;28;20112;-66
2021/04/01 02:26:56;;;;;;;26.02;11.05;;;10.30;99.90;;;;;;4997312;28;20068;-66
2021/04/01 02:29:25;;;;;;;23.48;10.15;;;10.30;99.90;;;;;;4997198;28;20073;-66
2021/04/01 02:31:51;;;;;;;30.00;11.30;;;10.40;99.90;;;;;;4997049;28;20033;-66
2021/04/01 02:34:18;;;;;;;24.65;10.45;;;10.40;99.90;;;;;;4997761;28;20517;-66
2021/04/01 02:36:44;;;;;;;24.05;10.40;;;10.50;99.90;;;;;;4996523;28;20049;-66
2021/04/01 02:39:12;;;;;;;24.08;11.27;;;10.40;99.90;;;;;;4997493;28;20039;-66
2021/04/01 02:41:37;;;;;;;25.17;11.88;;;10.30;99.90;;;;;;4996138;28;20127;-66
2021/04/01 02:44:04;;;;;;;23.38;11.50;;;10.30;99.90;;;;;;4994980;28;20121;-66
2021/04/01 02:46:29;;;;;;;25.05;10.85;;;10.30;99.90;;;;;;4996155;28;20041;-66
2021/04/01 02:48:55;;;;;;;26.83;12.05;;;10.20;99.90;;;;;;4996658;28;20040;-66
2021/04/01 02:51:20;;;;;;;28.15;11.00;;;10.30;99.90;;;;;;4996106;28;20030;-66
2021/04/01 02:53:46;;;;;;;23.80;12.10;;;10.30;99.90;;;;;;4997230;28;20033;-66
2021/04/01 02:56:12;;;;;;;27.77;12.00;;;10.30;99.90;;;;;;4994768;28;20048;-66
2021/04/01 02:58:38;;;;;;;28.05;12.18;;;10.30;99.90;;;;;;4995940;28;20057;-66
2021/04/01 03:01:05;;;;;;;26.85;12.07;;;10.40;99.90;;;;;;5011247;28;20852;-66
2021/04/01 03:03:35;;;;;;;24.02;11.85;;;10.60;99.90;;;;;;4996059;28;20830;-66
2021/04/01 03:06:02;;;;;;;31.75;12.15;;;10.80;99.80;;;;;;5010960;28;20032;-66
2021/04/01 03:08:27;;;;;;;26.73;11.52;;;10.90;99.50;;;;;;4995857;28;20816;-66
2021/04/01 03:10:54;;;;;;;26.70;11.82;;;11.00;99.60;;;;;;4996469;28;20095;-66
2021/04/01 03:13:20;;;;;;;26.80;11.10;;;11.00;99.50;;;;;;4995013;28;20847;-66
2021/04/01 03:15:46;;;;;;;29.15;12.68;;;11.10;99.10;;;;;;4996468;28;20040;-66
2021/04/01 03:18:11;;;;;;;27.30;12.50;;;11.10;99.00;;;;;;4996035;28;20034;-66
2021/04/01 03:20:37;;;;;;;26.02;12.48;;;11.10;99.10;;;;;;4996232;28;20060;-66
2021/04/01 03:23:03;;;;;;;22.90;11.70;;;11.00;99.10;;;;;;4996769;28;20467;-66
2021/04/01 03:25:28;;;;;;;30.00;11.75;;;10.90;99.30;;;;;;4995808;28;20026;-67
2021/04/01 03:27:54;;;;;;;27.60;11.63;;;10.80;99.60;;;;;;4995541;28;20740;-67
2021/04/01 03:30:20;;;;;;;25.80;12.15;;;10.70;99.90;;;;;;5010579;28;20497;-66
2021/04/01 03:32:47;;;;;;;23.92;11.27;;;10.60;99.90;;;;;;4995655;28;20831;-67
2021/04/01 03:35:21;;;;;;;31.98;12.77;;;10.50;99.90;;;;;;4990851;28;20045;-67
2021/04/01 03:37:49;;;;;;;26.80;13.55;;;10.50;99.90;;;;;;4992686;28;20034;-67
2021/04/01 03:40:15;;;;;;;25.50;12.10;;;10.40;99.90;;;;;;4995390;28;20037;-67
2021/04/01 03:42:41;;;;;;;30.27;11.85;;;10.40;99.90;;;;;;4995628;28;20030;-67
2021/04/01 03:45:10;;;;;;;25.73;12.07;;;10.40;99.90;;;;;;4995486;28;20038;-67
2021/04/01 03:47:37;;;;;;;27.42;12.40;;;10.40;99.90;;;;;;4992947;28;20100;-67
2021/04/01 03:50:04;;;;;;;23.10;11.98;;;10.30;99.90;;;;;;4992726;28;20418;-67
2021/04/01 03:52:30;;;;;;;23.25;11.48;;;10.20;99.90;;;;;;4994167;28;20033;-67
2021/04/01 03:55:00;;;;;;;27.63;11.25;;;10.20;99.90;;;;;;4994597;28;20115;-67
2021/04/01 03:57:26;;;;;;;27.67;12.00;;;10.10;99.90;;;;;;4991917;28;20236;-67
2021/04/01 04:05:08;;;;;;;27.63;12.85;;;10.00;99.90;;;;;;4991137;28;20835;-67
2021/04/01 04:15:47;;;;;;;24.98;11.63;;;10.30;99.90;;;;;;4997421;28;20041;-66
2021/04/01 04:18:13;;;;;;;25.73;12.30;;;10.20;99.90;;;;;;4996302;28;20073;-67
2021/04/01 04:20:39;;;;;;;25.95;12.38;;;10.10;99.90;;;;;;4997846;28;20041;-67
2021/04/01 04:23:07;;;;;;;27.13;11.65;;;10.10;99.90;;;;;;4997520;28;20044;-66
2021/04/01 04:25:34;;;;;;;24.55;12.68;;;10.10;99.90;;;;;;4997663;28;20500;-67
2021/04/01 04:30:27;;;;;;;28.20;12.80;;;10.10;99.90;;;;;;4995621;28;20121;-67
2021/04/01 04:32:53;;;;;;;28.30;13.00;;;10.30;99.90;;;;;;4995851;28;20969;-66
2021/04/01 04:35:19;;;;;;;27.80;12.10;;;10.40;99.90;;;;;;5009511;28;20034;-66
2021/04/01 04:37:45;;;;;;;28.55;12.10;;;10.40;99.90;;;;;;4994921;28;20041;-67
2021/04/01 04:40:12;;;;;;;24.20;12.25;;;10.30;99.90;;;;;;4998398;28;20025;-67
2021/04/01 04:42:37;;;;;;;26.55;12.10;;;10.30;99.90;;;;;;4994543;28;20680;-66
2021/04/01 04:45:05;;;;;;;33.30;13.57;;;10.30;99.90;;;;;;4994508;28;20037;-66
2021/04/01 04:47:31;;;;;;;25.88;12.30;;;10.40;99.90;;;;;;4993906;28;20034;-66
2021/04/01 04:49:57;;;;;;;26.67;12.52;;;10.40;99.90;;;;;;4994084;28;20044;-66
2021/04/01 04:52:23;;;;;;;28.48;13.13;;;10.30;99.90;;;;;;5013109;28;20049;-67
2021/04/01 04:54:48;;;;;;;28.20;13.02;;;10.20;99.90;;;;;;4999770;28;20777;-66
2021/04/01 05:04:59;;;;;;;29.48;12.75;;;10.50;99.90;;;;;;4996913;28;20091;-66
2021/04/01 05:07:24;;;;;;;26.05;12.73;;;10.60;99.90;;;;;;4999947;28;20540;-66
2021/04/01 05:09:50;;;;;;;24.58;12.07;;;10.50;99.90;;;;;;4996909;28;20041;-66
2021/04/01 05:12:16;;;;;;;28.65;12.48;;;10.50;99.90;;;;;;4998343;28;20030;-66
2021/04/01 05:14:42;;;;;;;25.60;12.52;;;10.50;99.90;;;;;;4999956;28;20149;-66
2021/04/01 05:17:08;;;;;;;29.50;12.23;;;10.60;99.90;;;;;;4999404;28;20041;-66
2021/04/01 05:19:35;;;;;;;26.65;12.52;;;10.70;99.90;;;;;;4998826;28;20033;-66
2021/04/01 05:22:12;;;;;;;27.23;12.57;;;10.70;99.90;;;;;;4999175;28;20076;-66
2021/04/01 05:24:39;;;;;;;26.92;12.77;;;10.70;99.90;;;;;;4997022;28;20149;-66
2021/04/01 05:29:40;;;;;;;37.15;15.27;;;10.70;99.90;;;;;;4996250;28;20096;-66
2021/04/01 05:32:07;;;;;;;40.75;14.85;;;10.80;99.90;;;;;;4991876;28;20478;-66
2021/04/01 05:34:35;;;;;;;34.13;14.30;;;10.70;99.90;;;;;;4998322;28;20026;-66
2021/04/01 05:37:02;;;;;;;29.90;13.48;;;10.80;99.90;;;;;;5013190;28;20049;-66
2021/04/01 05:39:29;;;;;;;33.38;14.10;;;10.80;99.90;;;;;;4998228;28;20037;-66
2021/04/01 05:41:57;;;;;;;24.17;12.65;;;11.00;99.90;;;;;;4997405;28;20532;-66
2021/04/01 05:44:31;;;;;;;24.38;11.27;;;11.00;99.90;;;;;;4998721;28;20053;-66
2021/04/01 05:47:16;;;;;;;19.88;10.48;;;11.10;99.90;;;;;;4995600;28;20049;-66
2021/04/01 05:50:03;;;;;;;23.80;10.45;;;11.10;99.90;;;;;;4993863;28;20228;-66
2021/04/01 05:53:16;;;;;;;17.40;9.32;;;11.10;99.90;;;;;;4998417;28;20811;-67
2021/04/01 06:04:27;;;;;;;28.90;13.45;;;11.20;99.90;;;;;;4995014;28;20062;-66
2021/04/01 06:07:02;;;;;;;24.38;13.23;;;11.30;99.90;;;;;;4996551;28;20038;-66
2021/04/01 06:09:34;;;;;;;25.00;12.07;;;11.40;99.90;;;;;;5013182;28;20860;-66
2021/04/01 06:12:00;;;;;;;31.35;12.98;;;11.30;99.90;;;;;;4997738;28;20095;-66
2021/04/01 06:14:32;;;;;;;30.98;13.15;;;11.40;99.90;;;;;;4994270;28;20030;-67
2021/04/01 06:17:06;;;;;;;31.02;13.65;;;11.50;99.90;;;;;;4997393;28;20033;-67
2021/04/01 06:19:34;;;;;;;27.60;13.25;;;11.70;99.90;;;;;;5012525;28;20041;-66
2021/04/01 06:22:06;;;;;;;31.80;14.40;;;11.80;99.90;;;;;;4991160;28;20136;-67
2021/04/01 06:24:33;;;;;;;34.72;14.52;;;11.90;99.60;;;;;;4994082;28;20034;-67
2021/04/01 06:27:16;;;;;;;31.75;14.10;;;12.10;99.70;;;;;;4993351;28;20041;-67
2021/04/01 06:32:30;;;;;;;33.88;15.40;;;12.20;99.90;;;;;;4998065;28;20113;-67
2021/04/01 06:40:54;;;;;;;27.05;13.43;;;12.40;99.90;;;;;;4994354;28;20030;-66
2021/04/01 06:43:21;;;;;;;25.88;13.05;;;12.60;99.70;;;;;;4989873;28;20844;-66
2021/04/01 06:45:54;;;;;;;35.70;14.52;;;12.60;99.80;;;;;;4990004;28;20060;-66
2021/04/01 06:48:25;;;;;;;27.00;13.43;;;12.90;99.90;;;;;;4997902;28;20049;-66
2021/04/01 06:51:03;;;;;;;41.25;14.20;;;13.10;99.20;;;;;;4995567;28;20037;-66
2021/04/01 06:53:54;;;;;;;29.77;13.05;;;13.30;98.60;;;;;;4994326;28;20661;-66
2021/04/01 06:56:33;;;;;;;34.88;13.88;;;13.30;98.40;;;;;;4993595;28;20033;-66
2021/04/01 06:59:21;;;;;;;31.63;13.73;;;13.30;98.40;;;;;;4997243;28;20037;-67
2021/04/01 07:02:32;;;;;;;28.08;12.68;;;13.40;99.00;;;;;;5006587;28;20116;-67
2021/04/01 07:04:37;;;;;;;26.60;13.02;;;13.40;98.80;;;;;;4993388;28;20384;-67
2021/04/01 07:07:13;;;;;;;36.15;15.52;;;13.60;98.50;;;;;;4992854;28;20034;-67
2021/04/01 07:12:24;;;;;;;31.45;14.27;;;13.30;99.70;;;;;;4988562;28;20049;-66
2021/04/01 07:14:53;;;;;;;31.92;13.48;;;13.40;99.70;;;;;;4997537;28;20841;-67
2021/04/01 07:48:42;;;;;;;29.67;13.75;;;14.90;96.30;;;;;;3587936;39;20150;-67
2021/04/01 07:54:25;;;;;;;36.05;15.02;;;15.00;95.40;;;;;;3592207;39;20352;-67
2021/04/01 07:57:08;;;;;;;27.00;13.77;;;15.30;95.20;;;;;;3586175;39;20236;-67
2021/04/01 08:04:52;;;;;;;38.05;15.35;;;16.10;94.00;;;;;;3587987;39;20141;-67
2021/04/01 08:07:20;;;;;;;43.97;15.45;;;16.40;92.70;;;;;;3582084;39;20185;-67
2021/04/01 08:09:48;;;;;;;30.58;14.93;;;16.70;92.70;;;;;;3583100;39;20061;-67
2021/04/01 08:12:31;;;;;;;38.45;14.45;;;16.90;91.50;;;;;;3586812;39;20123;-67
2021/04/01 08:15:02;;;;;;;31.23;15.52;;;17.30;90.20;;;;;;3585843;39;20072;-67
2021/04/01 08:17:34;;;;;;;31.67;14.50;;;17.60;88.70;;;;;;3586302;39;20791;-69
2021/04/01 08:20:01;;;;;;;31.30;14.57;;;17.80;89.60;;;;;;3582215;39;20061;-67
2021/04/01 08:22:29;;;;;;;34.85;16.88;;;18.10;85.10;;;;;;3588300;39;20092;-66
2021/04/01 08:25:03;;;;;;;48.33;16.67;;;18.30;81.20;;;;;;3587869;39;20064;-67
2021/04/01 08:28:15;;;;;;;31.83;15.02;;;18.70;79.10;;;;;;3588937;39;20087;-67
2021/04/01 08:35:56;;;;;;;36.60;17.45;;;19.40;74.00;;;;;;3586021;39;20064;-69
2021/04/01 08:38:22;;;;;;;39.58;18.25;;;19.30;74.00;;;;;;3582528;39;20822;-69
2021/04/01 08:40:49;;;;;;;49.00;20.58;;;19.00;73.40;;;;;;3585841;39;20409;-69
2021/04/01 08:43:41;;;;;;;44.38;20.80;;;18.80;73.80;;;;;;3588087;39;20173;-69
2021/04/01 08:46:32;;;;;;;38.70;19.15;;;18.40;75.50;;;;;;3590340;39;20080;-69
2021/04/01 08:49:19;;;;;;;38.45;19.13;;;17.90;78.20;;;;;;3601172;39;20053;-72
2021/04/01 08:51:55;;;;;;;38.78;18.98;;;17.80;79.40;;;;;;3577423;40;20230;-72
2021/04/01 08:54:41;;;;;;;39.80;19.38;;;17.60;80.50;;;;;;3581329;40;20076;-71
2021/04/01 08:57:28;;;;;;;38.03;18.55;;;17.60;81.20;;;;;;3579450;40;20161;-71
2021/04/01 09:00:07;;;;;;;46.75;19.85;;;17.50;82.80;;;;;;3597246;39;20325;-71
2021/04/01 09:02:34;;;;;;;50.72;19.77;;;17.30;85.60;;;;;;3577660;40;20076;-71
2021/04/01 09:05:07;;;;;;;53.75;20.83;;;17.30;84.70;;;;;;3574898;40;20053;-71
2021/04/01 09:07:41;;;;;;;43.83;21.55;;;17.40;86.70;;;;;;3577449;40;20052;-71
2021/04/01 09:10:20;;;;;;;50.88;23.73;;;17.30;87.40;;;;;;3578193;40;20068;-71
2021/04/01 09:15:45;;;;;;;45.47;22.35;;;17.10;90.20;;;;;;3576501;40;20159;-71
2021/04/01 09:18:26;;;;;;;55.33;22.20;;;16.60;95.70;;;;;;3581959;40;20798;-71
2021/04/01 09:20:55;;;;;;;54.42;23.42;;;16.50;97.30;;;;;;3586772;39;20065;-71
2021/04/01 09:23:38;;;;;;;48.03;23.25;;;16.40;96.60;;;;;;3596398;39;20139;-67
2021/04/01 09:26:05;;;;;;;53.00;23.75;;;16.40;96.30;;;;;;3579136;40;20157;-67
2021/04/01 09:28:38;;;;;;;47.90;23.80;;;16.50;95.40;;;;;;3577607;40;20053;-67
2021/04/01 09:31:05;;;;;;;51.25;24.60;;;16.50;98.40;;;;;;3577429;40;20068;-67
2021/04/01 09:33:32;;;;;;;50.50;24.55;;;16.40;97.70;;;;;;3580326;40;20763;-67
2021/04/01 09:36:22;;;;;;;48.10;23.67;;;16.30;95.70;;;;;;3577489;40;20540;-67
2021/04/01 09:39:06;;;;;;;57.00;24.52;;;16.40;95.40;;;;;;3580137;40;20095;-67
2021/04/01 09:41:35;;;;;;;52.88;24.10;;;16.60;95.10;;;;;;3580911;39;20080;-67
2021/04/01 09:44:09;;;;;;;45.88;21.50;;;16.90;94.90;;;;;;3577268;40;20225;-67
2021/04/01 09:46:57;;;;;;;57.72;26.48;;;16.90;93.90;;;;;;3581978;39;20076;-67
2021/04/01 09:49:31;;;;;;;56.42;26.13;;;17.10;93.50;;;;;;3580764;40;20052;-67
2021/04/01 09:51:59;;;;;;;49.20;23.63;;;17.30;92.80;;;;;;3579305;40;20091;-68
2021/04/01 09:54:28;;;;;;;49.40;22.98;;;17.40;93.40;;;;;;3581352;40;20052;-67
2021/04/01 09:56:56;;;;;;;57.35;24.55;;;17.60;92.70;;;;;;3578095;40;20053;-67
2021/04/01 10:00:07;;;;;;;49.03;22.83;;;17.80;92.00;;;;;;3574533;40;20091;-67
2021/04/01 10:02:34;;;;;;;54.20;25.95;;;18.10;90.70;;;;;;3578262;40;20421;-67
2021/04/01 10:05:05;;;;;;;53.90;25.33;;;18.50;87.90;;;;;;3579235;40;20099;-67
2021/04/01 10:07:33;;;;;;;51.45;24.70;;;18.90;84.60;;;;;;3577731;40;20261;-67
2021/04/01 10:09:59;;;;;;;48.85;24.38;;;18.90;83.10;;;;;;3582466;40;20064;-67
2021/04/01 10:12:35;;;;;;;59.97;26.20;;;18.90;80.80;;;;;;3581435;40;20079;-67
2021/04/01 10:15:03;;;;;;;54.65;24.45;;;18.90;80.70;;;;;;3575773;39;20099;-68
2021/04/01 10:17:29;;;;;;;50.25;23.88;;;18.60;80.00;;;;;;3576614;40;20245;-68
2021/04/01 10:19:56;;;;;;;52.58;25.92;;;18.60;80.90;;;;;;3578073;39;20504;-68
2021/04/01 10:22:24;;;;;;;57.75;25.70;;;18.80;80.90;;;;;;3576284;39;20672;-68
2021/04/01 10:25:19;;;;;;;58.35;26.63;;;19.00;77.10;;;;;;3576473;39;20096;-68
2021/04/01 10:30:20;;;;;;;58.10;26.95;;;19.50;68.60;;;;;;3577957;39;20065;-67
2021/04/01 10:32:54;;;;;;;57.22;26.85;;;19.60;71.40;;;;;;3579109;39;20065;-67
2021/04/01 10:35:26;;;;;;;67.03;25.83;;;19.80;70.90;;;;;;3574929;40;20505;-67
2021/04/01 10:37:56;;;;;;;57.47;26.65;;;19.60;72.40;;;;;;3577888;40;20060;-67
2021/04/01 10:40:23;;;;;;;53.42;25.45;;;19.40;74.40;;;;;;3575403;39;20162;-67
2021/04/01 10:43:01;;;;;;;53.28;25.25;;;19.20;74.70;;;;;;3582756;40;20064;-67
2021/04/01 10:45:35;;;;;;;51.65;23.85;;;19.20;77.10;;;;;;3582108;40;20056;-68
2021/04/01 10:48:22;;;;;;;49.13;24.15;;;19.30;77.30;;;;;;3581809;40;20076;-68
2021/04/01 10:50:51;;;;;;;53.65;26.90;;;19.30;76.90;;;;;;3578128;40;20181;-67
2021/04/01 10:53:24;;;;;;;52.35;23.70;;;19.30;75.40;;;;;;3590598;39;20076;-67
2021/04/01 10:55:52;;;;;;;55.85;25.40;;;19.20;75.60;;;;;;3575590;40;20071;-67
2021/04/01 10:58:18;;;;;;;56.60;25.83;;;19.20;74.60;;;;;;3579999;40;20905;-67
2021/04/01 11:00:57;;;;;;;55.35;25.48;;;19.00;74.80;;;;;;3578801;39;20174;-67
2021/04/01 11:03:35;;;;;;;59.30;26.08;;;19.00;75.70;;;;;;3580816;40;20060;-67
2021/04/01 11:06:01;;;;;;;53.65;25.52;;;18.60;76.80;;;;;;3581957;40;20174;-67
2021/04/01 11:08:38;;;;;;;58.85;25.73;;;18.30;79.30;;;;;;3582235;39;20277;-67
2021/04/01 11:11:04;;;;;;;55.28;25.38;;;18.30;81.30;;;;;;3578858;40;20135;-67
2021/04/01 11:13:34;;;;;;;58.50;26.13;;;18.40;79.80;;;;;;3578262;40;20056;-67
2021/04/01 11:16:04;;;;;;;56.78;26.95;;;18.30;80.70;;;;;;3578551;40;20394;-67
2021/04/01 11:18:30;;;;;;;60.78;26.40;;;18.20;78.80;;;;;;3579147;40;20118;-67
2021/04/01 11:20:58;;;;;;;53.25;26.08;;;18.00;83.20;;;;;;3583437;39;20074;-67
2021/04/01 11:23:28;;;;;;;52.13;26.05;;;17.70;91.00;;;;;;3578075;39;20068;-67
2021/04/01 11:25:59;;;;;;;55.50;26.50;;;17.50;91.30;;;;;;3578954;40;20166;-67
2021/04/01 11:28:50;;;;;;;59.70;27.27;;;17.20;93.20;;;;;;3575970;40;20079;-67
2021/04/01 11:31:28;;;;;;;59.42;26.35;;;17.10;95.40;;;;;;3580813;40;20065;-67
2021/04/01 11:33:55;;;;;;;54.10;26.15;;;17.10;93.00;;;;;;3578956;40;20755;-67
2021/04/01 11:36:22;;;;;;;51.65;24.90;;;16.90;94.30;;;;;;3579923;40;20137;-67
2021/04/01 11:39:36;;;;;;;53.67;24.15;;;16.80;93.40;;;;;;3579446;39;20064;-72
2021/04/01 11:41:47;;;;;;;55.10;26.20;;;16.70;96.50;;;;;;3576048;40;20073;-67
2021/04/01 11:44:18;;;;;;;53.25;25.25;;;16.70;99.30;;;;;;3584968;39;20072;-67
2021/04/01 11:46:44;;;;;;;58.45;25.80;;;16.60;98.70;;;;;;3577224;40;20053;-67
2021/04/01 11:49:10;;;;;;;57.53;25.67;;;16.60;97.90;;;;;;3583140;39;20604;-67
2021/04/01 11:51:36;;;;;;;52.15;24.15;;;16.70;97.00;;;;;;3574598;39;20160;-67
2021/04/01 11:54:04;;;;;;;47.63;23.55;;;17.00;97.60;;;;;;3579554;39;20079;-67
2021/04/01 11:56:37;;;;;;;58.55;26.15;;;17.30;94.60;;;;;;3577217;40;20072;-67
2021/04/01 11:59:10;;;;;;;58.45;26.17;;;18.00;91.90;;;;;;3576845;40;20761;-67
2021/04/01 12:01:55;;;;;;;55.20;24.80;;;18.40;90.50;;;;;;3579115;40;20180;-67
2021/04/01 12:04:23;;;;;;;54.03;25.20;;;18.30;89.90;;;;;;3581809;40;20305;-67
2021/04/01 12:06:49;;;;;;;61.67;27.73;;;18.10;90.70;;;;;;3581695;40;20771;-67
2021/04/01 12:09:15;;;;;;;64.47;27.75;;;18.20;88.20;;;;;;3578472;40;20204;-67
2021/04/01 12:11:45;;;;;;;55.67;26.05;;;18.30;90.00;;;;;;3578891;39;20088;-67
2021/04/01 12:14:13;;;;;;;62.63;26.30;;;18.20;90.60;;;;;;3580768;40;20172;-66
2021/04/01 12:16:40;;;;;;;54.22;26.30;;;18.20;91.10;;;;;;3582880;39;20202;-67
2021/04/01 12:19:06;;;;;;;56.53;26.90;;;18.30;90.80;;;;;;3580120;40;20068;-66
2021/04/01 12:21:33;;;;;;;55.33;25.77;;;18.20;88.50;;;;;;3578429;40;20083;-67
2021/04/01 12:24:04;;;;;;;57.45;27.48;;;18.10;90.00;;;;;;3578658;40;20076;-66
2021/04/01 12:26:42;;;;;;;58.15;26.58;;;17.80;95.60;;;;;;3580223;39;20064;-66
2021/04/01 12:29:08;;;;;;;56.25;25.30;;;17.30;94.80;;;;;;3584728;39;20658;-66
2021/04/01 12:31:37;;;;;;;66.15;27.13;;;16.90;97.10;;;;;;3580631;40;20177;-66
2021/04/01 12:34:03;;;;;;;59.88;26.75;;;16.90;97.70;;;;;;3581484;40;20095;-66
2021/04/01 12:36:34;;;;;;;52.30;24.75;;;17.20;97.30;;;;;;3581508;40;20140;-67
2021/04/01 12:39:00;;;;;;;60.50;26.35;;;17.50;97.20;;;;;;3578798;39;20946;-66
2021/04/01 12:41:29;;;;;;;57.17;24.63;;;18.00;95.40;;;;;;3579389;40;20061;-67
2021/04/01 12:43:56;;;;;;;53.80;24.77;;;18.60;94.90;;;;;;3584616;39;20060;-66
2021/04/01 12:46:23;;;;;;;61.47;27.58;;;19.00;92.10;;;;;;3584397;39;20057;-66
2021/04/01 12:48:54;;;;;;;67.78;28.15;;;18.90;89.50;;;;;;3586528;39;20166;-66
2021/04/01 12:51:21;;;;;;;69.50;29.73;;;18.80;86.80;;;;;;3580963;40;20060;-67
2021/04/01 12:54:10;;;;;;;67.50;29.45;;;18.80;81.00;;;;;;3582819;40;20064;-67
2021/04/01 12:56:42;;;;;;;75.72;31.63;;;18.70;78.80;;;;;;3582847;40;20069;-67
2021/04/01 13:01:40;;;;;;;76.50;31.05;;;18.80;78.70;;;;;;3578649;40;20072;-67
2021/04/01 13:04:10;;;;;;;78.00;30.67;;;19.20;78.60;;;;;;3580180;40;20048;-67
2021/04/01 13:07:00;;;;;;;72.22;30.10;;;19.50;75.20;;;;;;3579918;40;20177;-67
2021/04/01 13:09:41;;;;;;;78.82;30.70;;;19.70;73.90;;;;;;3575375;40;20067;-67
2021/04/01 13:12:14;;;;;;;76.78;30.40;;;19.70;71.20;;;;;;3575069;40;20385;-67
2021/04/01 13:14:40;;;;;;;74.65;30.75;;;19.50;71.30;;;;;;3581631;40;20048;-67
2021/04/01 13:17:07;;;;;;;79.93;31.95;;;19.40;72.10;;;;;;3581165;39;20079;-67
2021/04/01 13:19:33;;;;;;;72.25;29.30;;;19.20;74.40;;;;;;3578631;40;20190;-67
2021/04/01 13:24:37;;;;;;;66.95;29.48;;;19.30;72.90;;;;;;3578737;40;20065;-66
2021/04/01 13:27:12;;;;;;;72.93;31.38;;;19.20;72.40;;;;;;3577926;40;20080;-66
2021/04/01 13:29:41;;;;;;;68.22;31.13;;;19.10;73.30;;;;;;3580786;40;20080;-67
2021/04/01 13:34:38;;;;;;;71.57;30.80;;;19.00;72.30;;;;;;3581604;40;20057;-66
2021/04/01 13:44:47;;;;;;;78.65;32.03;;;19.40;71.80;;;;;;3582031;40;20088;-68
2021/04/01 13:47:13;;;;;;;;;;;19.30;70.90;;;;;;3580145;40;20652;-67
2021/04/01 13:49:41;;;;;;;69.18;30.90;;;19.30;70.40;;;;;;3580563;40;19947;-67
2021/04/01 13:54:51;;;;;;;71.70;32.95;;;19.70;71.60;;;;;;3582694;40;20077;-67
2021/04/01 14:11:28;;;;;;;83.00;39.60;;;19.80;70.90;;;;;;3581091;40;20060;-66
2021/04/01 14:13:53;;;;;;;87.22;41.45;;;19.40;71.70;;;;;;3579386;40;20049;-66
2021/04/01 14:16:20;;;;;;;93.35;42.50;;;18.50;75.10;;;;;;3579339;40;20413;-66
2021/04/01 14:18:49;;;;;;;91.50;40.80;;;18.10;77.60;;;;;;3580053;40;20746;-66
2021/04/01 14:21:20;;;;;;;84.03;39.22;;;17.70;79.90;;;;;;3583957;39;20290;-67
2021/04/01 14:23:47;;;;;;;91.47;41.28;;;17.60;81.40;;;;;;3584417;39;20114;-66
2021/04/01 14:26:34;;;;;;;97.82;41.80;;;17.40;81.30;;;;;;3586292;39;20064;-66
2021/04/01 14:28:59;;;;;;;84.57;39.53;;;17.30;82.70;;;;;;3579889;40;20614;-67
2021/04/01 14:31:25;;;;;;;87.85;41.25;;;17.20;84.40;;;;;;3578373;40;20068;-67
2021/04/01 14:33:52;;;;;;;84.28;39.45;;;17.10;85.60;;;;;;3578633;40;20211;-66
2021/04/01 14:36:19;;;;;;;72.13;33.80;;;16.90;88.60;;;;;;3574525;40;20613;-67
2021/04/01 14:38:45;;;;;;;57.78;28.35;;;16.80;92.10;;;;;;3576338;40;20159;-66
2021/04/01 14:46:29;;;;;;;53.75;25.80;;;16.30;96.50;;;;;;3577713;39;20467;-67
2021/04/01 14:48:58;;;;;;;50.67;25.27;;;16.20;97.10;;;;;;3575362;39;20189;-67
2021/04/01 14:51:24;;;;;;;51.13;23.77;;;16.10;97.30;;;;;;3575228;40;20080;-67
2021/04/01 14:53:53;;;;;;;49.00;24.08;;;16.10;97.10;;;;;;3580255;40;20103;-67
2021/04/01 14:56:19;;;;;;;47.53;23.52;;;15.90;97.80;;;;;;3577087;39;20283;-67
2021/04/01 14:58:49;;;;;;;41.67;20.55;;;15.90;97.30;;;;;;3580266;40;20071;-67
2021/04/01 15:01:20;;;;;;;44.95;21.27;;;15.90;97.70;;;;;;3576741;40;20083;-68